Impacts METAR Board INFO
IDs:

KDCA - Washington/National, VA, US

Updated at: 1811 UTC 22 Jan 2018
Potential Impact None Slight Moderate High
Time22/06Z 22/07Z 22/08Z 22/09Z 22/10Z 22/11Z 22/12Z 22/13Z 22/14Z 22/15Z 22/16Z 22/17Z 22/18Z
VIS10 10 10 10 10 10 10 10 10 10 10 10 10
CIG70 75 100 60 100 100 70 75 110 100 100 230 230
CoverOVCOVCOVCOVCOVCOVCOVCOVCBKNOVCOVCOVCOVC
FltCatVFRVFRVFRVFRVFRVFRVFRVFRVFRVFRVFRVFRVFR
WX--------------------------
WDir18019018019021000180190190180190170
WSpd8 7 6 6 4 0 0 5 6 6 9 7 8
WGst-- -- -- -- -- -- -- -- -- -- -- -- --
Raw hourly METARs
KDCA 220552Z 18008KT 10SM BKN070 OVC080 10/04 A3014 RMK AO2 RAB38E52 SLP207 P0000 60000 T01000044 10133 20083 58003
KDCA 220652Z 19007KT 10SM SCT065 BKN075 OVC100 12/05 A3014 RMK AO2 RAB16E25 SLP205 P0000 T01170050
KDCA 220752Z 18006KT 10SM SCT065 OVC100 09/04 A3013 RMK AO2 SLP203 T00940039
KDCA 220852Z 19006KT 10SM BKN060 OVC100 11/05 A3013 RMK AO2 SLP201 60000 T01110050 56006
KDCA 220952Z 21004KT 10SM FEW070 OVC100 11/05 A3012 RMK AO2 SLP199 T01060050
KDCA 221052Z 00000KT 10SM OVC100 10/05 A3013 RMK AO2 SLP201 T01000050
KDCA 221152Z 00000KT 10SM OVC070 11/05 A3013 RMK AO2 SLP204 60000 T01060050 10117 20089 53003
KDCA 221252Z 18005KT 10SM BKN075 OVC100 09/05 A3014 RMK AO2 RAB40E50 SLP205 P0000 T00940050
KDCA 221352Z 19006KT 10SM SCT090 BKN110 12/06 A3015 RMK AO2 RAB1253E1256B34E43 SLP208 P0000 T01170061
KDCA 221452Z 19006KT 10SM SCT075 BKN100 OVC250 12/06 A3016 RMK AO2 SLP213 60000 T01220056 53009
KDCA 221552Z 18009KT 10SM SCT075 BKN100 OVC250 13/06 A3015 RMK AO2 SLP209 T01330056
KDCA 221652Z 19007KT 10SM FEW100 FEW170 OVC230 15/06 A3012 RMK AO2 SLP199 T01500061
KDCA 221752Z 17008KT 10SM FEW100 FEW170 OVC230 16/06 A3008 RMK AO2 SLP187 60000 T01560061 10161 20083 58025